Time;durP1;ratioP1;P1;durP2;ratioP2;P2;SDS_P1;SDS_P2;PMS_P1;PMS_P2;Temp;Humidity;BMP_temperature;BMP_pressure;BME280_temperature;BME280_humidity;BME280_pressure;Samples;Min_cycle;Max_cycle;Signal;HPM_P1;HPM_P2
2021/11/25 11:23:15;;;;;;;31.60;16.53;;;9.00;99.90;;;;;;5104159;27;20388;-71
2021/11/25 11:25:42;;;;;;;31.77;18.43;;;9.10;99.90;;;;;;5104664;28;20089;-69
2021/11/25 11:28:08;;;;;;;27.97;16.13;;;9.10;99.90;;;;;;5105683;28;20047;-71
2021/11/25 11:30:35;;;;;;;26.07;14.47;;;9.10;99.90;;;;;;5104342;28;20040;-72
2021/11/25 11:33:05;;;;;;;28.50;14.07;;;9.10;99.90;;;;;;5093108;28;20055;-71
2021/11/25 11:35:34;;;;;;;26.83;14.87;;;9.20;99.90;;;;;;5084841;28;20125;-72
2021/11/25 11:38:03;;;;;;;26.13;13.07;;;9.20;99.90;;;;;;5104618;28;20135;-70
2021/11/25 11:40:33;;;;;;;23.70;11.87;;;9.30;99.90;;;;;;5106068;28;20042;-71
2021/11/25 11:43:01;;;;;;;14.77;7.00;;;9.40;99.90;;;;;;5104745;28;20097;-73
2021/11/25 11:45:33;;;;;;;14.47;7.10;;;9.40;99.90;;;;;;5103989;28;20048;-71
2021/11/25 11:48:01;;;;;;;10.63;4.07;;;9.40;99.90;;;;;;5106152;28;20481;-72
2021/11/25 11:50:37;;;;;;;10.43;3.00;;;9.40;99.90;;;;;;5105625;28;20044;-71
2021/11/25 11:53:17;;;;;;;13.23;2.73;;;9.40;99.90;;;;;;5104029;28;20044;-71
2021/11/25 11:56:12;;;;;;;17.10;3.20;;;9.40;99.70;;;;;;5104314;28;20460;-72
2021/11/25 11:58:39;;;;;;;12.13;2.17;;;9.40;99.40;;;;;;5103727;28;20056;-72
2021/11/25 12:01:14;;;;;;;7.63;1.90;;;9.30;99.30;;;;;;5105713;28;20044;-73
2021/11/25 12:03:55;;;;;;;7.73;1.57;;;9.30;98.90;;;;;;5104415;28;20440;-71
2021/11/25 12:06:42;;;;;;;7.73;1.63;;;9.20;98.40;;;;;;5103977;28;20059;-72
2021/11/25 13:05:56;;;;;;;5.60;1.83;;;8.50;96.70;;;;;;5019796;28;20405;-72
2021/11/25 13:08:42;;;;;;;5.67;1.87;;;8.40;97.20;;;;;;5023175;28;20371;-76
2021/11/25 13:11:18;;;;;;;7.77;2.27;;;8.40;97.70;;;;;;5024899;28;20389;-74
2021/11/25 13:13:46;;;;;;;11.17;1.77;;;8.40;98.20;;;;;;5025747;28;20050;-76
2021/11/25 13:16:14;;;;;;;5.77;1.50;;;8.40;98.60;;;;;;5025316;28;20041;-74
2021/11/25 13:19:11;;;;;;;7.53;2.03;;;8.50;98.80;;;;;;5025550;28;20375;-75
2021/11/25 13:21:40;;;;;;;4.67;1.27;;;8.60;98.90;;;;;;5025761;28;20050;-76
2021/11/25 13:24:27;;;;;;;5.77;1.40;;;8.70;99.00;;;;;;5025088;28;20088;-75
2021/11/25 13:26:59;;;;;;;8.67;1.50;;;8.70;98.90;;;;;;5024516;28;20049;-74
2021/11/25 13:29:30;;;;;;;;;;;8.70;98.90;;;;;;5024055;28;20038;-73
2021/11/25 13:31:56;;;;;;;6.43;1.00;;;8.70;98.20;;;;;;5057535;28;19948;-77
2021/11/25 13:34:24;;;;;;;8.37;2.50;;;8.70;98.80;;;;;;5023170;28;20026;-75
2021/11/25 13:36:55;;;;;;;9.40;2.67;;;8.70;98.70;;;;;;5023626;28;20050;-76
2021/11/25 13:39:24;;;;;;;;;;;8.70;98.70;;;;;;5026047;28;20038;-76
2021/11/25 13:41:52;;;;;;;11.10;3.43;;;8.70;97.60;;;;;;5024252;28;19951;-75
2021/11/25 13:44:19;;;;;;;6.87;2.40;;;8.70;98.40;;;;;;5023555;28;20052;-73
2021/11/25 13:46:48;;;;;;;10.53;2.00;;;8.70;98.40;;;;;;5025226;28;20223;-71
2021/11/25 13:49:15;;;;;;;6.77;1.30;;;8.70;98.30;;;;;;5025374;28;20053;-75
2021/11/25 13:51:42;;;;;;;9.00;1.60;;;8.70;98.10;;;;;;5023180;28;20069;-76
2021/11/25 13:54:09;;;;;;;9.57;1.33;;;8.60;98.00;;;;;;5025181;28;20080;-76
2021/11/25 13:56:35;;;;;;;7.40;1.40;;;8.60;98.30;;;;;;5024110;28;20153;-75
2021/11/25 13:59:03;;;;;;;5.83;1.57;;;8.60;97.80;;;;;;5023084;28;20132;-76
2021/11/25 14:01:29;;;;;;;8.10;1.30;;;8.60;97.90;;;;;;5025287;28;20046;-73
2021/11/25 14:03:55;;;;;;;9.70;1.93;;;8.60;97.90;;;;;;5024849;28;20495;-77
2021/11/25 14:06:30;;;;;;;8.93;1.40;;;8.60;97.80;;;;;;5024116;28;20053;-79
2021/11/25 14:09:23;;;;;;;6.17;1.20;;;8.50;97.70;;;;;;5023903;28;20096;-72
2021/11/25 14:11:57;;;;;;;5.10;1.10;;;8.30;97.80;;;;;;5021395;28;20089;-76
2021/11/25 14:14:33;;;;;;;5.63;0.97;;;8.30;98.10;;;;;;5022815;28;20045;-76
2021/11/25 14:16:59;;;;;;;5.00;1.77;;;8.20;98.10;;;;;;5011608;28;20131;-73
2021/11/25 14:19:26;;;;;;;8.10;2.37;;;8.10;98.10;;;;;;5008688;28;20042;-75
2021/11/25 15:23:29;;;;;;;12.97;2.97;;;7.30;98.30;;;;;;5100376;27;20399;-77
2021/11/25 15:25:54;;;;;;;21.13;4.33;;;7.30;97.50;;;;;;5108284;28;20362;-80
2021/11/25 15:28:22;;;;;;;13.30;3.43;;;7.30;97.80;;;;;;5105496;28;20774;-78
2021/11/25 15:30:48;;;;;;;15.80;5.27;;;7.30;98.20;;;;;;5105295;27;20046;-75
2021/11/25 15:33:15;;;;;;;14.50;3.70;;;7.30;98.50;;;;;;5106169;28;20361;-76
2021/11/25 15:35:44;;;;;;;14.40;3.70;;;7.20;98.80;;;;;;5105266;28;20307;-80
2021/11/25 15:38:15;;;;;;;15.17;3.47;;;7.20;99.10;;;;;;5104788;27;20294;-80
2021/11/25 15:40:43;;;;;;;14.70;4.17;;;7.20;99.30;;;;;;5106019;28;20278;-78
2021/11/25 15:43:10;;;;;;;18.73;4.80;;;7.20;99.40;;;;;;5105483;28;20313;-81
2021/11/25 15:45:38;;;;;;;12.90;2.87;;;7.10;99.50;;;;;;5104745;27;20294;-79
2021/11/25 15:48:06;;;;;;;9.73;2.53;;;7.10;99.60;;;;;;5106288;27;20055;-78
2021/11/25 15:50:33;;;;;;;14.57;2.73;;;7.10;99.70;;;;;;5103960;27;20334;-80
2021/11/25 15:52:59;;;;;;;14.93;2.70;;;7.10;99.70;;;;;;5105069;28;20131;-75
2021/11/25 15:55:25;;;;;;;15.17;4.13;;;7.10;99.80;;;;;;5107403;28;20292;-82
2021/11/25 15:57:50;;;;;;;17.37;4.40;;;7.10;99.80;;;;;;5107129;28;20044;-80
2021/11/25 16:00:16;;;;;;;10.17;2.87;;;7.10;99.80;;;;;;5104914;28;20121;-77
2021/11/25 16:02:43;;;;;;;18.27;3.83;;;7.10;99.80;;;;;;5103864;28;20103;-80
2021/11/25 16:05:09;;;;;;;13.97;3.40;;;7.10;99.80;;;;;;5104697;28;20098;-72
2021/11/25 16:07:35;;;;;;;12.53;4.00;;;7.10;99.80;;;;;;5109489;28;20675;-80
2021/11/25 16:10:00;;;;;;;12.53;4.20;;;7.00;99.70;;;;;;5106222;28;20044;-78
2021/11/25 16:12:26;;;;;;;31.90;13.07;;;7.00;99.70;;;;;;5106076;28;20382;-75
2021/11/25 16:14:51;;;;;;;33.07;14.53;;;7.00;99.70;;;;;;5104792;28;20044;-75
2021/11/25 16:17:18;;;;;;;12.77;5.03;;;7.00;99.60;;;;;;5103354;28;20063;-75
2021/11/25 16:19:46;;;;;;;12.53;3.73;;;7.00;99.60;;;;;;5103743;28;20227;-76
2021/11/25 16:22:12;;;;;;;13.37;3.80;;;7.00;99.50;;;;;;5102191;28;20433;-75
2021/11/25 16:24:39;;;;;;;8.20;2.93;;;7.00;99.30;;;;;;5102786;28;20043;-78
2021/11/25 16:27:06;;;;;;;13.80;5.97;;;7.00;99.30;;;;;;5103294;28;20052;-78
2021/11/25 16:29:31;;;;;;;17.23;4.60;;;7.00;99.20;;;;;;5104027;28;20837;-77
2021/11/25 16:31:57;;;;;;;8.17;4.13;;;7.00;99.10;;;;;;5101543;28;20407;-76
2021/11/25 16:34:24;;;;;;;10.43;3.40;;;7.10;99.10;;;;;;5092049;28;20130;-76
2021/11/25 16:36:52;;;;;;;12.53;2.70;;;7.10;99.00;;;;;;5090231;28;20039;-79
2021/11/25 16:39:19;;;;;;;12.40;4.13;;;7.00;98.90;;;;;;5088901;28;20440;-77
2021/11/25 16:41:46;;;;;;;11.23;4.43;;;7.00;98.90;;;;;;5090250;28;20217;-78
2021/11/25 16:44:16;;;;;;;12.53;3.70;;;6.90;98.80;;;;;;5090624;28;20047;-82
2021/11/25 16:49:13;;;;;;;;;;;6.90;98.80;;;;;;5090888;28;20086;-77
2021/11/25 16:51:39;;;;;;;12.77;3.43;;;6.80;98.40;;;;;;5090086;28;19992;-75
2021/11/25 16:54:05;;;;;;;14.47;4.07;;;6.70;98.70;;;;;;5089107;28;20036;-78
2021/11/25 16:56:31;;;;;;;12.37;6.70;;;6.70;98.70;;;;;;5089442;28;20515;-75
2021/11/25 16:58:57;;;;;;;15.63;5.43;;;6.70;98.70;;;;;;5088786;28;20480;-74
2021/11/25 17:01:23;;;;;;;23.67;5.90;;;6.60;98.70;;;;;;5088006;28;20352;-76
2021/11/25 17:03:49;;;;;;;12.70;4.73;;;6.60;98.70;;;;;;5089062;28;20047;-77
2021/11/25 17:06:15;;;;;;;16.07;4.53;;;6.50;98.70;;;;;;5088588;28;20047;-72
2021/11/25 17:08:42;;;;;;;18.33;6.10;;;6.50;98.70;;;;;;5087862;28;20058;-77
